sensor_id;sensor_type;location;lat;lon;timestamp;pressure;altitude;pressure_sealevel;temperature;humidity
65211;BME280;51794;52.758;55.792;2022-09-09T00:00:46;97830.06;;;10.46;58.28
65211;BME280;51794;52.758;55.792;2022-09-09T00:03:17;97823.56;;;10.34;58.92
65211;BME280;51794;52.758;55.792;2022-09-09T00:11:12;97827.53;;;10.52;58.22
65211;BME280;51794;52.758;55.792;2022-09-09T00:13:46;97829.59;;;10.65;58.01
65211;BME280;51794;52.758;55.792;2022-09-09T00:16:17;97828.84;;;10.71;57.80
65211;BME280;51794;52.758;55.792;2022-09-09T00:21:18;97817.22;;;10.58;58.50
65211;BME280;51794;52.758;55.792;2022-09-09T00:23:48;97819.72;;;10.74;58.84
65211;BME280;51794;52.758;55.792;2022-09-09T00:26:52;97828.63;;;10.58;58.90
65211;BME280;51794;52.758;55.792;2022-09-09T00:29:32;97822.50;;;10.58;58.87
65211;BME280;51794;52.758;55.792;2022-09-09T00:32:24;97823.25;;;10.66;58.91
65211;BME280;51794;52.758;55.792;2022-09-09T00:35:02;97816.34;;;10.80;58.18
65211;BME280;51794;52.758;55.792;2022-09-09T00:37:29;97815.47;;;10.65;58.55
65211;BME280;51794;52.758;55.792;2022-09-09T00:40:00;97812.38;;;10.76;57.90
65211;BME280;51794;52.758;55.792;2022-09-09T00:42:43;97817.75;;;10.68;58.90
65211;BME280;51794;52.758;55.792;2022-09-09T00:45:39;97816.50;;;10.64;58.62
65211;BME280;51794;52.758;55.792;2022-09-09T00:48:12;97815.47;;;10.65;58.00
65211;BME280;51794;52.758;55.792;2022-09-09T00:50:48;97809.81;;;10.68;58.30
65211;BME280;51794;52.758;55.792;2022-09-09T00:56:26;97807.66;;;10.86;57.87
65211;BME280;51794;52.758;55.792;2022-09-09T01:01:44;97819.09;;;10.87;57.84
65211;BME280;51794;52.758;55.792;2022-09-09T01:04:14;97802.91;;;10.96;57.70
65211;BME280;51794;52.758;55.792;2022-09-09T01:06:43;97814.88;;;10.78;57.76
65211;BME280;51794;52.758;55.792;2022-09-09T01:09:27;97817.78;;;10.83;57.81
65211;BME280;51794;52.758;55.792;2022-09-09T01:12:23;97828.50;;;10.74;59.48
65211;BME280;51794;52.758;55.792;2022-09-09T01:15:15;97824.44;;;10.64;60.88
65211;BME280;51794;52.758;55.792;2022-09-09T01:18:13;97827.16;;;10.56;62.83
65211;BME280;51794;52.758;55.792;2022-09-09T01:29:11;97844.03;;;10.78;64.02
65211;BME280;51794;52.758;55.792;2022-09-09T01:31:58;97836.47;;;10.89;63.72
65211;BME280;51794;52.758;55.792;2022-09-09T01:34:27;97835.63;;;11.04;63.18
65211;BME280;51794;52.758;55.792;2022-09-09T01:37:07;97843.41;;;11.20;62.50
65211;BME280;51794;52.758;55.792;2022-09-09T01:39:34;97841.13;;;11.17;64.67
65211;BME280;51794;52.758;55.792;2022-09-09T01:42:02;97838.47;;;10.87;65.48
65211;BME280;51794;52.758;55.792;2022-09-09T01:44:30;97831.41;;;11.24;63.83
65211;BME280;51794;52.758;55.792;2022-09-09T01:46:56;97829.84;;;11.44;70.02
65211;BME280;51794;52.758;55.792;2022-09-09T01:49:22;97825.25;;;9.80;64.86
65211;BME280;51794;52.758;55.792;2022-09-09T01:51:52;97827.91;;;9.18;66.20
65211;BME280;51794;52.758;55.792;2022-09-09T01:54:20;97807.69;;;9.25;66.29
65211;BME280;51794;52.758;55.792;2022-09-09T02:02:42;97793.72;;;9.94;64.44
65211;BME280;51794;52.758;55.792;2022-09-09T02:05:39;97795.75;;;9.83;64.73
65211;BME280;51794;52.758;55.792;2022-09-09T02:08:13;97797.44;;;9.53;65.33
65211;BME280;51794;52.758;55.792;2022-09-09T02:11:06;97789.06;;;9.42;65.45
65211;BME280;51794;52.758;55.792;2022-09-09T02:13:35;97789.03;;;9.50;65.23
65211;BME280;51794;52.758;55.792;2022-09-09T02:21:37;97803.75;;;9.21;65.97
65211;BME280;51794;52.758;55.792;2022-09-09T02:24:07;97801.34;;;9.34;66.50
65211;BME280;51794;52.758;55.792;2022-09-09T02:26:40;97804.78;;;9.43;65.41
65211;BME280;51794;52.758;55.792;2022-09-09T02:29:35;97800.84;;;9.70;63.84
65211;BME280;51794;52.758;55.792;2022-09-09T02:32:04;97803.06;;;10.04;63.03
65211;BME280;51794;52.758;55.792;2022-09-09T02:34:36;97799.03;;;9.94;63.13
65211;BME280;51794;52.758;55.792;2022-09-09T02:37:03;97797.75;;;10.04;63.34
65211;BME280;51794;52.758;55.792;2022-09-09T02:39:29;97799.47;;;9.74;63.67
65211;BME280;51794;52.758;55.792;2022-09-09T02:41:55;97791.75;;;9.65;63.76
65211;BME280;51794;52.758;55.792;2022-09-09T02:44:22;97796.00;;;9.74;63.01
65211;BME280;51794;52.758;55.792;2022-09-09T02:52:45;97794.91;;;11.26;57.07
65211;BME280;51794;52.758;55.792;2022-09-09T02:57:58;97782.63;;;12.19;54.34
65211;BME280;51794;52.758;55.792;2022-09-09T03:00:26;97784.72;;;11.44;56.34
65211;BME280;51794;52.758;55.792;2022-09-09T03:02:53;97771.47;;;12.58;52.81
65211;BME280;51794;52.758;55.792;2022-09-09T03:05:22;97783.78;;;12.10;54.65
65211;BME280;51794;52.758;55.792;2022-09-09T03:07:49;97772.97;;;16.00;46.42
65211;BME280;51794;52.758;55.792;2022-09-09T03:10:16;97770.56;;;17.29;42.68
65211;BME280;51794;52.758;55.792;2022-09-09T03:12:43;97773.66;;;18.46;39.92
65211;BME280;51794;52.758;55.792;2022-09-09T03:15:09;97767.31;;;19.35;38.04
65211;BME280;51794;52.758;55.792;2022-09-09T03:17:36;97769.56;;;19.67;36.80
65211;BME280;51794;52.758;55.792;2022-09-09T03:20:06;97774.41;;;21.16;34.51
65211;BME280;51794;52.758;55.792;2022-09-09T03:22:33;97774.13;;;20.96;34.28
65211;BME280;51794;52.758;55.792;2022-09-09T03:24:59;97775.59;;;18.81;37.18
65211;BME280;51794;52.758;55.792;2022-09-09T03:27:25;97777.09;;;16.03;43.32
65211;BME280;51794;52.758;55.792;2022-09-09T03:29:51;97775.84;;;15.73;43.54
65211;BME280;51794;52.758;55.792;2022-09-09T03:32:18;97771.97;;;16.26;43.26
65211;BME280;51794;52.758;55.792;2022-09-09T03:34:44;97772.44;;;17.10;40.85
65211;BME280;51794;52.758;55.792;2022-09-09T03:37:12;97771.50;;;17.53;39.75
65211;BME280;51794;52.758;55.792;2022-09-09T03:39:38;97768.63;;;19.61;35.88
65211;BME280;51794;52.758;55.792;2022-09-09T03:42:04;97759.31;;;21.59;32.90
65211;BME280;51794;52.758;55.792;2022-09-09T03:44:31;97761.53;;;20.63;34.01
65211;BME280;51794;52.758;55.792;2022-09-09T03:46:57;97762.22;;;19.10;35.61
65211;BME280;51794;52.758;55.792;2022-09-09T03:49:26;97772.28;;;16.11;41.75
65211;BME280;51794;52.758;55.792;2022-09-09T03:51:55;97775.66;;;16.00;43.02
65211;BME280;51794;52.758;55.792;2022-09-09T03:54:23;97776.34;;;16.45;41.89
65211;BME280;51794;52.758;55.792;2022-09-09T03:56:49;97773.78;;;17.19;40.05
65211;BME280;51794;52.758;55.792;2022-09-09T03:59:15;97783.31;;;19.82;36.69
65211;BME280;51794;52.758;55.792;2022-09-09T04:01:41;97776.63;;;20.64;34.01
65211;BME280;51794;52.758;55.792;2022-09-09T04:04:08;97775.78;;;20.97;33.71
65211;BME280;51794;52.758;55.792;2022-09-09T04:06:35;97777.59;;;20.24;33.70
65211;BME280;51794;52.758;55.792;2022-09-09T04:09:01;97776.09;;;21.00;33.16
65211;BME280;51794;52.758;55.792;2022-09-09T04:11:29;97772.97;;;22.02;32.04
65211;BME280;51794;52.758;55.792;2022-09-09T04:13:55;97772.66;;;23.47;29.60
65211;BME280;51794;52.758;55.792;2022-09-09T04:16:21;97768.13;;;22.63;31.15
65211;BME280;51794;52.758;55.792;2022-09-09T04:18:47;97772.56;;;22.42;31.39
65211;BME280;51794;52.758;55.792;2022-09-09T04:21:13;97779.72;;;20.89;33.31
65211;BME280;51794;52.758;55.792;2022-09-09T04:23:40;97769.53;;;21.35;32.76
65211;BME280;51794;52.758;55.792;2022-09-09T04:26:06;97769.28;;;23.88;29.50
65211;BME280;51794;52.758;55.792;2022-09-09T04:28:34;97766.91;;;24.68;27.93
65211;BME280;51794;52.758;55.792;2022-09-09T04:31:14;97776.59;;;23.77;29.50
65211;BME280;51794;52.758;55.792;2022-09-09T04:33:40;97775.59;;;24.55;28.45
65211;BME280;51794;52.758;55.792;2022-09-09T04:36:07;97766.56;;;21.15;32.66
65211;BME280;51794;52.758;55.792;2022-09-09T04:38:33;97790.13;;;20.18;34.28
65211;BME280;51794;52.758;55.792;2022-09-09T04:40:59;97784.75;;;21.90;32.54
65211;BME280;51794;52.758;55.792;2022-09-09T04:43:25;97772.09;;;21.69;31.90
65211;BME280;51794;52.758;55.792;2022-09-09T04:45:51;97768.81;;;24.32;28.94
65211;BME280;51794;52.758;55.792;2022-09-09T04:48:18;97770.44;;;24.74;28.59
65211;BME280;51794;52.758;55.792;2022-09-09T04:50:56;97763.00;;;25.25;27.70
65211;BME280;51794;52.758;55.792;2022-09-09T04:53:22;97760.25;;;25.90;26.92
65211;BME280;51794;52.758;55.792;2022-09-09T04:55:48;97767.19;;;24.61;27.86
65211;BME280;51794;52.758;55.792;2022-09-09T04:58:14;97777.75;;;24.58;27.67
65211;BME280;51794;52.758;55.792;2022-09-09T05:00:40;97782.59;;;20.03;34.00
65211;BME280;51794;52.758;55.792;2022-09-09T05:03:07;97784.63;;;19.27;35.90
65211;BME280;51794;52.758;55.792;2022-09-09T05:05:37;97783.47;;;17.99;37.93
65211;BME280;51794;52.758;55.792;2022-09-09T05:08:05;97779.50;;;17.90;38.06
65211;BME280;51794;52.758;55.792;2022-09-09T05:10:32;97797.06;;;18.93;36.79
65211;BME280;51794;52.758;55.792;2022-09-09T05:12:59;97804.78;;;17.82;38.30
65211;BME280;51794;52.758;55.792;2022-09-09T05:15:25;97804.06;;;17.38;38.69
65211;BME280;51794;52.758;55.792;2022-09-09T05:17:51;97797.41;;;17.59;38.94
65211;BME280;51794;52.758;55.792;2022-09-09T05:20:19;97802.63;;;16.99;39.80
65211;BME280;51794;52.758;55.792;2022-09-09T05:22:45;97805.47;;;17.22;39.90
65211;BME280;51794;52.758;55.792;2022-09-09T05:25:11;97802.56;;;16.87;40.36
65211;BME280;51794;52.758;55.792;2022-09-09T05:27:37;97810.97;;;16.65;40.54
65211;BME280;51794;52.758;55.792;2022-09-09T05:30:03;97814.47;;;15.77;42.03
65211;BME280;51794;52.758;55.792;2022-09-09T05:32:30;97809.22;;;16.28;41.35
65211;BME280;51794;52.758;55.792;2022-09-09T05:34:59;97808.00;;;16.23;41.76
65211;BME280;51794;52.758;55.792;2022-09-09T05:37:25;97813.53;;;16.54;41.63
65211;BME280;51794;52.758;55.792;2022-09-09T05:39:51;97805.47;;;16.85;40.77
65211;BME280;51794;52.758;55.792;2022-09-09T05:42:17;97814.81;;;15.88;42.85
65211;BME280;51794;52.758;55.792;2022-09-09T05:44:43;97821.38;;;15.92;43.76
65211;BME280;51794;52.758;55.792;2022-09-09T05:47:10;97815.06;;;15.21;45.83
65211;BME280;51794;52.758;55.792;2022-09-09T05:49:37;97829.06;;;15.03;45.88
65211;BME280;51794;52.758;55.792;2022-09-09T05:52:03;97819.56;;;15.27;45.84
65211;BME280;51794;52.758;55.792;2022-09-09T05:54:29;97828.50;;;14.81;45.81
65211;BME280;51794;52.758;55.792;2022-09-09T05:56:55;97827.38;;;15.29;45.20
65211;BME280;51794;52.758;55.792;2022-09-09T05:59:21;97818.56;;;15.28;45.16
65211;BME280;51794;52.758;55.792;2022-09-09T06:01:49;97830.66;;;15.31;45.06
65211;BME280;51794;52.758;55.792;2022-09-09T06:04:15;97823.31;;;15.06;45.41
65211;BME280;51794;52.758;55.792;2022-09-09T06:06:41;97830.31;;;15.14;46.47
65211;BME280;51794;52.758;55.792;2022-09-09T06:09:08;97829.53;;;14.74;46.77
65211;BME280;51794;52.758;55.792;2022-09-09T06:11:40;97831.59;;;14.72;46.02
65211;BME280;51794;52.758;55.792;2022-09-09T06:14:07;97828.69;;;14.40;45.86
65211;BME280;51794;52.758;55.792;2022-09-09T06:16:34;97829.53;;;14.74;45.92
65211;BME280;51794;52.758;55.792;2022-09-09T06:19:01;97832.31;;;15.19;44.68
65211;BME280;51794;52.758;55.792;2022-09-09T06:21:30;97830.56;;;14.79;45.91
65211;BME280;51794;52.758;55.792;2022-09-09T06:23:58;97835.81;;;15.26;44.80
65211;BME280;51794;52.758;55.792;2022-09-09T06:26:26;97839.88;;;15.93;43.86
65211;BME280;51794;52.758;55.792;2022-09-09T06:28:55;97836.56;;;15.46;44.51
65211;BME280;51794;52.758;55.792;2022-09-09T06:31:22;97842.59;;;15.22;44.91
65211;BME280;51794;52.758;55.792;2022-09-09T06:33:51;97838.44;;;15.39;44.41
65211;BME280;51794;52.758;55.792;2022-09-09T06:36:19;97842.34;;;15.95;43.69
65211;BME280;51794;52.758;55.792;2022-09-09T06:38:46;97835.03;;;15.64;44.52
65211;BME280;51794;52.758;55.792;2022-09-09T06:41:14;97833.84;;;15.60;44.09
65211;BME280;51794;52.758;55.792;2022-09-09T06:43:41;97829.00;;;15.88;43.97
65211;BME280;51794;52.758;55.792;2022-09-09T06:46:11;97824.06;;;16.49;44.27
65211;BME280;51794;52.758;55.792;2022-09-09T06:48:39;97839.53;;;16.46;44.10
65211;BME280;51794;52.758;55.792;2022-09-09T06:51:12;97831.47;;;16.78;43.13
65211;BME280;51794;52.758;55.792;2022-09-09T06:53:40;97825.41;;;17.08;43.11
65211;BME280;51794;52.758;55.792;2022-09-09T06:58:39;97820.50;;;17.23;41.98
65211;BME280;51794;52.758;55.792;2022-09-09T07:01:14;97827.19;;;17.69;41.29
65211;BME280;51794;52.758;55.792;2022-09-09T07:03:41;97829.16;;;16.32;42.90
65211;BME280;51794;52.758;55.792;2022-09-09T07:06:20;97829.63;;;16.72;42.61
65211;BME280;51794;52.758;55.792;2022-09-09T07:08:51;97820.06;;;17.26;41.97
65211;BME280;51794;52.758;55.792;2022-09-09T07:11:19;97825.72;;;17.36;42.00
65211;BME280;51794;52.758;55.792;2022-09-09T07:13:47;97819.59;;;18.15;41.11
65211;BME280;51794;52.758;55.792;2022-09-09T07:16:16;97812.31;;;17.55;41.66
65211;BME280;51794;52.758;55.792;2022-09-09T07:18:43;97816.78;;;17.79;40.62
65211;BME280;51794;52.758;55.792;2022-09-09T07:21:10;97814.41;;;17.34;41.56
65211;BME280;51794;52.758;55.792;2022-09-09T07:23:38;97811.78;;;16.66;42.62
65211;BME280;51794;52.758;55.792;2022-09-09T07:26:17;97806.25;;;16.11;43.47
65211;BME280;51794;52.758;55.792;2022-09-09T07:28:47;97811.09;;;16.20;43.23
65211;BME280;51794;52.758;55.792;2022-09-09T07:31:18;97817.34;;;16.39;42.83
65211;BME280;51794;52.758;55.792;2022-09-09T07:33:44;97810.94;;;16.90;41.81
65211;BME280;51794;52.758;55.792;2022-09-09T07:36:25;97813.81;;;17.14;41.82
65211;BME280;51794;52.758;55.792;2022-09-09T07:39:03;97817.25;;;16.53;43.02
65211;BME280;51794;52.758;55.792;2022-09-09T07:41:33;97806.34;;;18.01;41.17
65211;BME280;51794;52.758;55.792;2022-09-09T07:44:03;97818.16;;;17.15;42.77
65211;BME280;51794;52.758;55.792;2022-09-09T07:46:29;97807.59;;;18.17;39.89
65211;BME280;51794;52.758;55.792;2022-09-09T07:48:56;97809.63;;;19.28;37.64
65211;BME280;51794;52.758;55.792;2022-09-09T07:51:25;97810.81;;;19.32;37.34
65211;BME280;51794;52.758;55.792;2022-09-09T07:53:55;97811.13;;;17.69;40.16
65211;BME280;51794;52.758;55.792;2022-09-09T07:56:22;97801.53;;;17.43;40.01
65211;BME280;51794;52.758;55.792;2022-09-09T07:58:51;97807.88;;;17.30;40.53
65211;BME280;51794;52.758;55.792;2022-09-09T08:01:26;97811.06;;;17.21;40.66
65211;BME280;51794;52.758;55.792;2022-09-09T08:04:01;97805.13;;;16.50;41.40
65211;BME280;51794;52.758;55.792;2022-09-09T08:06:33;97806.31;;;16.29;41.99
65211;BME280;51794;52.758;55.792;2022-09-09T08:09:00;97815.28;;;16.41;42.72
65211;BME280;51794;52.758;55.792;2022-09-09T08:11:28;97813.31;;;15.98;43.77
65211;BME280;51794;52.758;55.792;2022-09-09T08:13:55;97812.22;;;16.13;43.86
65211;BME280;51794;52.758;55.792;2022-09-09T08:16:24;97808.66;;;15.87;44.83
65211;BME280;51794;52.758;55.792;2022-09-09T08:18:51;97804.69;;;15.96;44.85
65211;BME280;51794;52.758;55.792;2022-09-09T08:21:24;97800.22;;;16.22;44.76
65211;BME280;51794;52.758;55.792;2022-09-09T08:23:54;97799.09;;;16.30;44.63
65211;BME280;51794;52.758;55.792;2022-09-09T08:26:24;97804.34;;;16.18;44.02
65211;BME280;51794;52.758;55.792;2022-09-09T08:28:51;97801.81;;;15.98;44.60
65211;BME280;51794;52.758;55.792;2022-09-09T08:31:23;97799.78;;;16.50;44.12
65211;BME280;51794;52.758;55.792;2022-09-09T08:33:49;97805.78;;;15.89;45.94
65211;BME280;51794;52.758;55.792;2022-09-09T08:36:18;97806.75;;;16.26;45.27
65211;BME280;51794;52.758;55.792;2022-09-09T08:38:50;97795.88;;;17.14;43.49
65211;BME280;51794;52.758;55.792;2022-09-09T08:43:50;97799.97;;;17.54;43.63
65211;BME280;51794;52.758;55.792;2022-09-09T08:46:32;97789.81;;;16.57;45.14
65211;BME280;51794;52.758;55.792;2022-09-09T08:49:21;97785.66;;;16.36;46.19
65211;BME280;51794;52.758;55.792;2022-09-09T08:51:54;97793.47;;;15.29;48.97
65211;BME280;51794;52.758;55.792;2022-09-09T08:54:23;97798.09;;;15.02;49.86
65211;BME280;51794;52.758;55.792;2022-09-09T08:56:50;97781.09;;;15.87;48.36
65211;BME280;51794;52.758;55.792;2022-09-09T08:59:18;97787.53;;;16.11;47.88
65211;BME280;51794;52.758;55.792;2022-09-09T09:12:44;97771.66;;;17.58;45.94
65211;BME280;51794;52.758;55.792;2022-09-09T09:15:18;97771.81;;;17.75;45.89
65211;BME280;51794;52.758;55.792;2022-09-09T09:17:45;97768.44;;;17.68;45.76
65211;BME280;51794;52.758;55.792;2022-09-09T09:20:13;97760.03;;;18.48;44.17
65211;BME280;51794;52.758;55.792;2022-09-09T09:22:52;97768.66;;;18.38;43.50
65211;BME280;51794;52.758;55.792;2022-09-09T09:25:22;97762.84;;;17.39;46.17
65211;BME280;51794;52.758;55.792;2022-09-09T09:28:10;97755.41;;;17.23;47.14
65211;BME280;51794;52.758;55.792;2022-09-09T09:31:06;97751.97;;;17.82;45.55
65211;BME280;51794;52.758;55.792;2022-09-09T09:36:08;97750.84;;;17.90;45.80
65211;BME280;51794;52.758;55.792;2022-09-09T09:38:36;97758.88;;;17.42;46.03
65211;BME280;51794;52.758;55.792;2022-09-09T09:41:02;97760.13;;;16.40;48.29
65211;BME280;51794;52.758;55.792;2022-09-09T09:43:31;97746.03;;;16.95;46.89
65211;BME280;51794;52.758;55.792;2022-09-09T09:45:59;97748.41;;;17.70;45.20
65211;BME280;51794;52.758;55.792;2022-09-09T09:48:26;97748.31;;;17.28;46.16
65211;BME280;51794;52.758;55.792;2022-09-09T09:51:00;97742.00;;;17.23;46.87
65211;BME280;51794;52.758;55.792;2022-09-09T09:53:30;97738.09;;;17.07;46.89
65211;BME280;51794;52.758;55.792;2022-09-09T09:55:58;97736.22;;;16.89;47.80
65211;BME280;51794;52.758;55.792;2022-09-09T09:58:48;97734.81;;;17.83;45.50
65211;BME280;51794;52.758;55.792;2022-09-09T10:01:27;97727.13;;;16.90;46.81
65211;BME280;51794;52.758;55.792;2022-09-09T10:04:01;97733.47;;;16.77;47.35
65211;BME280;51794;52.758;55.792;2022-09-09T10:06:36;97726.41;;;17.01;47.35
65211;BME280;51794;52.758;55.792;2022-09-09T10:09:17;97718.06;;;16.48;48.49
65211;BME280;51794;52.758;55.792;2022-09-09T10:12:17;97732.88;;;16.00;49.83
65211;BME280;51794;52.758;55.792;2022-09-09T10:20:12;97719.34;;;16.63;53.34
65211;BME280;51794;52.758;55.792;2022-09-09T10:22:52;97721.44;;;16.43;55.30
65211;BME280;51794;52.758;55.792;2022-09-09T10:30:56;97723.50;;;16.41;54.52
65211;BME280;51794;52.758;55.792;2022-09-09T10:33:49;97719.13;;;16.21;55.86
65211;BME280;51794;52.758;55.792;2022-09-09T10:36:22;97710.75;;;16.36;55.15
65211;BME280;51794;52.758;55.792;2022-09-09T10:39:01;97715.06;;;16.62;54.04
65211;BME280;51794;52.758;55.792;2022-09-09T10:41:39;97714.69;;;16.59;54.39
65211;BME280;51794;52.758;55.792;2022-09-09T10:55:17;97685.97;;;17.81;55.34
65211;BME280;51794;52.758;55.792;2022-09-09T10:57:49;97684.72;;;17.54;53.91
65211;BME280;51794;52.758;55.792;2022-09-09T11:00:37;97693.56;;;17.24;52.86
65211;BME280;51794;52.758;55.792;2022-09-09T11:03:04;97693.31;;;16.77;52.60
65211;BME280;51794;52.758;55.792;2022-09-09T11:05:41;97687.75;;;16.79;53.19
65211;BME280;51794;52.758;55.792;2022-09-09T11:08:29;97680.19;;;17.54;51.64
65211;BME280;51794;52.758;55.792;2022-09-09T11:11:08;97682.97;;;17.59;51.53
65211;BME280;51794;52.758;55.792;2022-09-09T11:16:38;97687.09;;;16.58;53.46
65211;BME280;51794;52.758;55.792;2022-09-09T11:19:33;97678.66;;;17.28;51.96
65211;BME280;51794;52.758;55.792;2022-09-09T11:22:29;97671.53;;;17.52;51.91
65211;BME280;51794;52.758;55.792;2022-09-09T11:41:45;97664.00;;;17.01;50.86
65211;BME280;51794;52.758;55.792;2022-09-09T11:44:12;97660.19;;;16.72;50.54
65211;BME280;51794;52.758;55.792;2022-09-09T11:46:44;97660.50;;;16.02;51.42
65211;BME280;51794;52.758;55.792;2022-09-09T11:49:47;97652.47;;;16.02;52.74
65211;BME280;51794;52.758;55.792;2022-09-09T11:55:09;97656.00;;;16.20;52.76
65211;BME280;51794;52.758;55.792;2022-09-09T11:57:39;97645.19;;;16.52;51.16
65211;BME280;51794;52.758;55.792;2022-09-09T12:00:05;97644.41;;;17.19;49.73
65211;BME280;51794;52.758;55.792;2022-09-09T12:02:32;97630.13;;;17.36;49.29
65211;BME280;51794;52.758;55.792;2022-09-09T12:05:07;97621.75;;;17.45;49.28
65211;BME280;51794;52.758;55.792;2022-09-09T12:07:56;97617.50;;;17.25;49.30
65211;BME280;51794;52.758;55.792;2022-09-09T12:10:28;97612.22;;;17.07;50.11
65211;BME280;51794;52.758;55.792;2022-09-09T12:13:29;97611.19;;;17.62;59.78
65211;BME280;51794;52.758;55.792;2022-09-09T12:15:58;97612.63;;;17.76;48.75
65211;BME280;51794;52.758;55.792;2022-09-09T12:18:36;97620.53;;;17.71;49.85
65211;BME280;51794;52.758;55.792;2022-09-09T12:21:33;97640.69;;;17.73;51.41
65211;BME280;51794;52.758;55.792;2022-09-09T12:24:13;97689.13;;;15.94;70.74
65211;BME280;51794;52.758;55.792;2022-09-09T12:26:56;97752.72;;;12.39;100.00
65211;BME280;51794;52.758;55.792;2022-09-09T12:29:36;98017.97;;;11.77;100.00
65211;BME280;51794;52.758;55.792;2022-09-09T12:32:11;97374.25;;;12.59;100.00
65211;BME280;51794;52.758;55.792;2022-09-09T12:34:53;97354.88;;;13.50;100.00
65211;BME280;51794;52.758;55.792;2022-09-09T12:37:34;97404.34;;;14.30;100.00
65211;BME280;51794;52.758;55.792;2022-09-09T12:40:04;97477.72;;;17.17;100.00
65211;BME280;51794;52.758;55.792;2022-09-09T12:42:32;97556.47;;;18.57;100.00
65211;BME280;51794;52.758;55.792;2022-09-09T12:45:03;97654.28;;;18.02;78.36
65211;BME280;51794;52.758;55.792;2022-09-09T12:47:51;97637.72;;;17.09;81.49
65211;BME280;51794;52.758;55.792;2022-09-09T12:50:25;97670.41;;;15.94;66.93
65211;BME280;51794;52.758;55.792;2022-09-09T12:56:04;97669.16;;;16.22;62.89
65211;BME280;51794;52.758;55.792;2022-09-09T12:58:33;97675.16;;;15.92;64.70
65211;BME280;51794;52.758;55.792;2022-09-09T13:01:02;97665.13;;;17.53;61.33
65211;BME280;51794;52.758;55.792;2022-09-09T13:03:32;97670.84;;;16.78;60.12
65211;BME280;51794;52.758;55.792;2022-09-09T13:06:10;97667.28;;;17.33;58.65
65211;BME280;51794;52.758;55.792;2022-09-09T13:08:38;97672.41;;;17.76;57.22
65211;BME280;51794;52.758;55.792;2022-09-09T13:11:09;97669.47;;;18.08;57.09
65211;BME280;51794;52.758;55.792;2022-09-09T13:13:40;97663.88;;;18.45;55.73
65211;BME280;51794;52.758;55.792;2022-09-09T13:16:39;97655.44;;;17.94;55.93
65211;BME280;51794;52.758;55.792;2022-09-09T13:19:17;97654.41;;;18.07;56.01
65211;BME280;51794;52.758;55.792;2022-09-09T13:21:43;97658.56;;;17.37;55.71
65211;BME280;51794;52.758;55.792;2022-09-09T13:24:31;97655.00;;;18.33;52.97
65211;BME280;51794;52.758;55.792;2022-09-09T13:27:02;97656.72;;;17.50;55.15
65211;BME280;51794;52.758;55.792;2022-09-09T13:29:30;97654.72;;;17.33;55.54
65211;BME280;51794;52.758;55.792;2022-09-09T13:32:26;97656.78;;;17.73;54.46
65211;BME280;51794;52.758;55.792;2022-09-09T13:34:57;97660.78;;;17.41;54.30
65211;BME280;51794;52.758;55.792;2022-09-09T13:37:39;97650.56;;;17.49;53.96
65211;BME280;51794;52.758;55.792;2022-09-09T13:40:20;97650.19;;;16.85;55.09
65211;BME280;51794;52.758;55.792;2022-09-09T13:42:50;97653.84;;;17.21;54.66
65211;BME280;51794;52.758;55.792;2022-09-09T13:45:19;97646.63;;;17.22;55.85
65211;BME280;51794;52.758;55.792;2022-09-09T13:47:49;97645.09;;;17.26;56.07
65211;BME280;51794;52.758;55.792;2022-09-09T13:50:30;97637.69;;;16.79;56.81
65211;BME280;51794;52.758;55.792;2022-09-09T13:52:58;97637.69;;;15.74;57.94
65211;BME280;51794;52.758;55.792;2022-09-09T13:55:26;97627.78;;;14.73;60.92
65211;BME280;51794;52.758;55.792;2022-09-09T13:58:04;97622.94;;;14.43;63.07
65211;BME280;51794;52.758;55.792;2022-09-09T14:00:33;97619.69;;;14.86;61.72
65211;BME280;51794;52.758;55.792;2022-09-09T14:03:00;97611.00;;;14.66;61.77
65211;BME280;51794;52.758;55.792;2022-09-09T14:05:27;97610.44;;;14.37;62.11
65211;BME280;51794;52.758;55.792;2022-09-09T14:07:53;97599.00;;;14.10;62.69
65211;BME280;51794;52.758;55.792;2022-09-09T14:10:19;97605.38;;;13.95;64.18
65211;BME280;51794;52.758;55.792;2022-09-09T14:12:46;97600.25;;;14.07;63.05
65211;BME280;51794;52.758;55.792;2022-09-09T14:15:12;97603.31;;;14.17;63.61
65211;BME280;51794;52.758;55.792;2022-09-09T14:17:40;97593.44;;;14.25;60.77
65211;BME280;51794;52.758;55.792;2022-09-09T14:20:06;97591.13;;;14.48;61.01
65211;BME280;51794;52.758;55.792;2022-09-09T14:22:35;97591.63;;;14.12;62.42
65211;BME280;51794;52.758;55.792;2022-09-09T14:25:03;97592.09;;;13.62;64.62
65211;BME280;51794;52.758;55.792;2022-09-09T14:27:29;97585.09;;;13.94;64.67
65211;BME280;51794;52.758;55.792;2022-09-09T14:29:55;97592.28;;;13.74;65.42
65211;BME280;51794;52.758;55.792;2022-09-09T14:32:23;97593.31;;;14.00;63.58
65211;BME280;51794;52.758;55.792;2022-09-09T14:34:49;97599.72;;;14.50;60.94
65211;BME280;51794;52.758;55.792;2022-09-09T14:37:16;97596.97;;;14.83;60.97
65211;BME280;51794;52.758;55.792;2022-09-09T14:39:42;97602.97;;;15.04;60.45
65211;BME280;51794;52.758;55.792;2022-09-09T14:42:13;97600.16;;;15.30;59.24
65211;BME280;51794;52.758;55.792;2022-09-09T14:44:40;97602.31;;;15.15;61.35
65211;BME280;51794;52.758;55.792;2022-09-09T14:47:07;97599.16;;;15.25;62.06
65211;BME280;51794;52.758;55.792;2022-09-09T14:49:34;97599.34;;;14.98;63.29
65211;BME280;51794;52.758;55.792;2022-09-09T14:52:01;97600.75;;;15.32;61.88
65211;BME280;51794;52.758;55.792;2022-09-09T14:54:27;97599.13;;;15.31;62.54
65211;BME280;51794;52.758;55.792;2022-09-09T14:56:53;97598.66;;;15.66;61.45
65211;BME280;51794;52.758;55.792;2022-09-09T14:59:19;97592.75;;;15.58;58.91
65211;BME280;51794;52.758;55.792;2022-09-09T15:01:45;97609.47;;;14.83;60.35